createdAt,value
2023-05-02T00:00:01.275Z,100468.06
2023-05-02T00:02:29.291Z,100473.34
2023-05-02T00:04:57.085Z,100450.34
2023-05-02T00:07:24.524Z,100442.38
2023-05-02T00:09:52.198Z,100432.63
2023-05-02T00:12:19.564Z,100431.72
2023-05-02T00:14:46.888Z,100430.78
2023-05-02T00:17:20.812Z,100436.09
2023-05-02T00:19:48.334Z,100445.72
2023-05-02T00:22:15.674Z,100442.19
2023-05-02T00:24:43.017Z,100437.78
2023-05-02T00:27:10.809Z,100430.72
2023-05-02T00:29:38.978Z,100430.69
2023-05-02T00:32:07.143Z,100430.72
2023-05-02T00:34:34.596Z,100428.88
2023-05-02T00:37:02.289Z,100425.31
2023-05-02T00:39:29.712Z,100418.25
2023-05-02T00:41:59.964Z,100406.78
2023-05-02T00:44:27.707Z,100408.53
2023-05-02T00:46:58.910Z,100404.94
2023-05-02T00:49:26.258Z,100407.56
2023-05-02T00:51:54.811Z,100406.56
2023-05-02T00:54:22.244Z,100404.63
2023-05-02T00:56:49.627Z,100423.06
2023-05-02T00:59:17.366Z,100435.47
2023-05-02T01:02:20.163Z,100431.94
2023-05-02T01:05:22.038Z,100431.91
2023-05-02T01:08:10.937Z,100444.97
2023-05-02T01:11:02.091Z,100458.03
2023-05-02T01:13:35.944Z,100465.91
2023-05-02T01:16:04.685Z,100479.13
2023-05-02T01:18:36.015Z,100490.59
2023-05-02T01:21:07.921Z,100515.44
2023-05-02T01:24:12.905Z,100521.84
2023-05-02T01:26:54.818Z,100513.03
2023-05-02T01:29:24.021Z,100505.09
2023-05-02T01:31:51.658Z,100506.94
2023-05-02T01:34:21.610Z,100497.25
2023-05-02T01:36:51.598Z,100493.75
2023-05-02T01:39:24.565Z,100494.63
2023-05-02T01:41:55.901Z,100497.31
2023-05-02T01:44:24.663Z,100491.03
2023-05-02T01:46:55.113Z,100495.50
2023-05-02T01:49:24.988Z,100502.59
2023-05-02T01:51:53.151Z,100505.16
2023-05-02T01:54:23.717Z,100506.06
2023-05-02T01:56:51.256Z,100497.22
2023-05-02T01:59:20.964Z,100505.16
2023-05-02T02:01:56.337Z,100503.34
2023-05-02T02:04:25.466Z,100501.47
2023-05-02T02:06:58.940Z,100526.19
2023-05-02T02:09:26.472Z,100531.44
2023-05-02T02:12:07.611Z,100541.19
2023-05-02T02:14:38.730Z,100554.38
2023-05-02T02:17:22.560Z,100560.69
2023-05-02T02:19:54.120Z,100558.84
2023-05-02T02:22:24.234Z,100555.34
2023-05-02T02:24:54.505Z,100564.13
2023-05-02T02:27:22.326Z,100581.91
2023-05-02T02:29:49.527Z,100581.81
2023-05-02T02:32:16.885Z,100588.75
2023-05-02T02:34:45.017Z,100597.69
2023-05-02T02:37:21.786Z,100596.81
2023-05-02T02:40:40.641Z,100614.50
2023-05-02T02:43:38.066Z,100610.00
2023-05-02T02:46:42.981Z,100615.25
2023-05-02T02:49:31.538Z,100632.91
2023-05-02T02:52:15.688Z,100624.06
2023-05-02T02:54:51.841Z,100621.41
2023-05-02T02:57:43.942Z,100640.91
2023-05-02T03:00:16.730Z,100632.06
2023-05-02T03:02:45.144Z,100643.53
2023-05-02T03:05:13.197Z,100639.81
2023-05-02T03:07:41.525Z,100657.44
2023-05-02T03:10:09.363Z,100654.69
2023-05-02T03:12:36.794Z,100667.81
2023-05-02T03:15:51.329Z,100671.25
2023-05-02T03:18:19.340Z,100693.34
2023-05-02T03:20:46.935Z,100711.19
2023-05-02T03:23:14.318Z,100726.31
2023-05-02T03:25:41.788Z,100727.25
2023-05-02T03:28:09.496Z,100732.59
2023-05-02T03:30:40.690Z,100729.91
2023-05-02T03:33:09.047Z,100732.50
2023-05-02T03:35:36.435Z,100734.31
2023-05-02T03:38:03.793Z,100741.44
2023-05-02T03:40:31.174Z,100736.03
2023-05-02T03:42:58.530Z,100736.91
2023-05-02T03:45:25.900Z,100740.34
2023-05-02T03:47:53.292Z,100742.06
2023-05-02T03:50:20.688Z,100752.63
2023-05-02T03:52:48.265Z,100756.22
2023-05-02T03:55:15.414Z,100759.66
2023-05-02T03:57:42.763Z,100775.50
2023-05-02T04:00:10.778Z,100781.69
2023-05-02T04:02:38.441Z,100797.56
2023-05-02T04:05:06.352Z,100797.56
2023-05-02T04:07:33.717Z,100800.19
2023-05-02T04:10:01.270Z,100810.81
2023-05-02T04:12:28.782Z,100819.63
2023-05-02T04:14:56.266Z,100834.78
2023-05-02T04:17:26.738Z,100846.28
2023-05-02T04:19:54.235Z,100858.75
2023-05-02T04:22:21.569Z,100864.97
2023-05-02T04:24:49.186Z,100871.16
2023-05-02T04:27:16.588Z,100887.19
2023-05-02T04:29:43.964Z,100890.72
2023-05-02T04:32:11.813Z,100893.44
2023-05-02T04:34:39.485Z,100897.03
2023-05-02T04:37:07.620Z,100898.00
2023-05-02T04:39:35.104Z,100905.94
2023-05-02T04:42:02.628Z,100906.91
2023-05-02T04:44:30.014Z,100916.66
2023-05-02T04:46:57.376Z,100910.44
2023-05-02T04:49:24.768Z,100919.25
2023-05-02T04:51:53.271Z,100932.59
2023-05-02T04:54:20.627Z,100936.13
2023-05-02T04:56:48.035Z,100938.72
2023-05-02T04:59:15.375Z,100948.56
2023-05-02T05:01:42.857Z,100945.88
2023-05-02T05:04:10.393Z,100941.47
2023-05-02T05:06:38.178Z,100946.81
2023-05-02T05:09:06.122Z,100956.59
2023-05-02T05:11:33.588Z,100948.69
2023-05-02T05:14:00.953Z,100964.63
2023-05-02T05:16:28.977Z,100961.16
2023-05-02T05:18:56.329Z,100963.84
2023-05-02T05:21:23.678Z,100963.91
2023-05-02T05:23:51.360Z,100963.03
2023-05-02T05:26:18.778Z,100960.41
2023-05-02T05:28:46.268Z,100967.50
2023-05-02T05:31:17.229Z,100976.41
2023-05-02T05:33:44.873Z,100985.28
2023-05-02T05:36:17.348Z,100982.63
2023-05-02T05:38:44.896Z,100982.69
2023-05-02T05:41:12.664Z,100988.03
2023-05-02T05:43:40.063Z,100988.91
2023-05-02T05:46:07.443Z,101004.00
2023-05-02T05:48:34.945Z,101005.00
2023-05-02T05:51:06.132Z,101013.00
2023-05-02T05:53:34.042Z,101016.53
2023-05-02T05:56:10.004Z,101023.66
2023-05-02T05:58:38.156Z,101021.94
2023-05-02T06:01:05.923Z,101022.84
2023-05-02T06:03:33.576Z,101026.50
2023-05-02T06:06:01.503Z,101025.66
2023-05-02T06:08:28.884Z,101033.75
2023-05-02T06:10:56.218Z,101031.94
2023-05-02T06:13:23.684Z,101039.97
2023-05-02T06:15:51.257Z,101053.34
2023-05-02T06:18:18.659Z,101045.34
2023-05-02T06:20:46.422Z,101052.41
2023-05-02T06:23:14.103Z,101048.00
2023-05-02T06:25:41.653Z,101039.16
2023-05-02T06:28:09.591Z,101036.47
2023-05-02T06:30:37.323Z,101045.44
2023-05-02T06:33:07.663Z,101048.06
2023-05-02T06:35:35.052Z,101049.03
2023-05-02T06:38:02.392Z,101046.34
2023-05-02T06:40:29.814Z,101042.88
2023-05-02T06:42:57.215Z,101034.06
2023-05-02T06:45:24.592Z,101027.97
2023-05-02T06:47:52.088Z,101026.38
2023-05-02T06:50:21.084Z,101014.06
2023-05-02T06:52:48.435Z,100999.28
2023-05-02T06:55:15.811Z,100992.34
2023-05-02T06:57:43.785Z,100982.69
2023-05-02T07:00:11.835Z,100957.91
2023-05-02T07:02:39.260Z,100950.84
2023-05-02T07:05:06.955Z,100926.88
2023-05-02T07:07:34.393Z,100901.94
2023-05-02T07:10:02.210Z,100904.78
2023-05-02T07:12:29.867Z,100898.66
2023-05-02T07:14:57.279Z,100886.31
2023-05-02T07:17:25.604Z,100876.63
2023-05-02T07:19:53.478Z,100833.13
2023-05-02T07:22:23.200Z,100833.19
2023-05-02T07:24:58.793Z,100812.78
2023-05-02T07:27:26.356Z,100810.16
2023-05-02T07:29:53.775Z,100796.00
2023-05-02T07:32:27.583Z,100783.59
2023-05-02T07:34:58.516Z,100787.16
2023-05-02T07:37:25.919Z,100782.72
2023-05-02T07:39:53.266Z,100767.69
2023-05-02T07:42:20.277Z,100754.34
2023-05-02T07:44:47.730Z,100708.25
2023-05-02T07:47:15.023Z,100713.56
2023-05-02T07:49:42.374Z,100713.56
2023-05-02T07:52:09.798Z,100711.81
2023-05-02T07:54:37.398Z,100712.69
2023-05-02T07:57:08.286Z,100694.09
2023-05-02T07:59:35.781Z,100726.88
2023-05-02T08:02:03.187Z,100747.25
2023-05-02T08:04:30.743Z,100744.59
2023-05-02T08:06:58.222Z,100755.25
2023-05-02T08:09:25.860Z,100766.78
2023-05-02T08:11:53.287Z,100758.81
2023-05-02T08:14:20.774Z,100769.44
2023-05-02T08:16:48.195Z,100778.22
2023-05-02T08:19:16.011Z,100746.19
2023-05-02T08:21:43.655Z,100709.06
2023-05-02T08:24:11.051Z,100700.25
2023-05-02T08:26:38.416Z,100720.47
2023-05-02T08:29:05.874Z,100698.97
2023-05-02T08:31:34.134Z,100703.34
2023-05-02T08:34:01.567Z,100686.44
2023-05-02T08:36:29.221Z,100632.47
2023-05-02T08:38:56.556Z,100615.69
2023-05-02T08:41:24.002Z,100624.44
2023-05-02T08:43:51.378Z,100636.84
2023-05-02T08:46:18.986Z,100633.31
2023-05-02T08:48:49.684Z,100644.69
2023-05-02T08:53:45.966Z,100620.69
2023-05-02T08:56:13.807Z,100568.50
2023-05-02T08:58:41.632Z,100584.38
2023-05-02T09:01:17.667Z,100603.66
2023-05-02T09:03:47.024Z,100576.09
2023-05-02T09:06:17.890Z,100554.59
2023-05-02T09:08:49.344Z,100537.25
2023-05-02T09:11:17.550Z,100484.34
2023-05-02T09:13:51.492Z,100505.50
2023-05-02T09:16:23.067Z,100512.88
2023-05-02T09:18:53.900Z,100460.25
2023-05-02T09:21:26.763Z,100441.59
2023-05-02T09:23:59.261Z,100425.53
2023-05-02T09:26:32.740Z,100419.69
2023-05-02T09:29:04.121Z,100436.03
2023-05-02T09:31:54.813Z,100387.59
2023-05-02T09:34:23.587Z,100371.38
2023-05-02T09:36:54.449Z,100318.44
2023-05-02T09:39:29.095Z,100326.75
2023-05-02T09:41:57.239Z,100322.88
2023-05-02T09:44:37.204Z,100254.19
2023-05-02T09:47:06.814Z,100252.38
2023-05-02T09:49:46.284Z,100232.31
2023-05-02T09:52:16.229Z,100275.59
2023-05-02T09:54:43.765Z,100292.94
2023-05-02T09:57:11.580Z,100228.16
2023-05-02T09:59:40.386Z,100287.13
2023-05-02T10:02:11.599Z,100170.41
2023-05-02T10:04:40.010Z,100260.63
2023-05-02T10:07:10.602Z,100128.50
2023-05-02T10:09:44.454Z,100116.34
2023-05-02T10:12:15.431Z,100120.16
2023-05-02T10:14:51.618Z,100073.06
2023-05-02T10:17:31.713Z,100126.66
2023-05-02T10:20:06.291Z,100136.31
2023-05-02T10:22:37.021Z,100073.47
2023-05-02T10:25:05.576Z,100110.63
2023-05-02T10:27:33.615Z,100093.00
2023-05-02T10:30:04.793Z,100141.06
2023-05-02T10:32:34.779Z,100130.97
2023-05-02T10:35:06.861Z,100039.59
2023-05-02T10:37:37.765Z,100004.75
2023-05-02T10:40:06.333Z,100027.78
2023-05-02T10:42:41.122Z,100097.06
2023-05-02T10:45:31.928Z,99989.06
2023-05-02T10:48:25.253Z,100092.91
2023-05-02T10:50:58.387Z,100046.19
2023-05-02T10:53:26.523Z,100115.38
2023-05-02T10:56:14.516Z,100080.28
2023-05-02T10:58:44.572Z,100092.03
2023-05-02T11:01:29.863Z,99938.53
2023-05-02T11:04:09.024Z,99971.97
2023-05-02T11:07:01.266Z,99918.94
2023-05-02T11:09:28.624Z,99773.47
2023-05-02T11:11:57.325Z,99797.09
2023-05-02T11:14:27.680Z,99659.31
2023-05-02T11:17:06.648Z,99704.34
2023-05-02T11:19:45.465Z,99865.72
2023-05-02T11:22:19.308Z,99742.00
2023-05-02T11:24:51.223Z,99731.03
2023-05-02T11:27:30.709Z,99835.69
2023-05-02T11:30:06.760Z,99791.72
2023-05-02T11:32:46.325Z,99782.69
2023-05-02T11:35:27.260Z,99643.50
2023-05-02T11:37:58.127Z,99662.06
2023-05-02T11:40:28.950Z,99690.00
2023-05-02T11:42:57.863Z,99751.91
2023-05-02T11:45:39.183Z,99715.88
2023-05-02T11:48:07.739Z,99714.72
2023-05-02T11:50:52.780Z,99685.41
2023-05-02T11:53:24.169Z,99521.63
2023-05-02T11:55:55.852Z,99366.53
2023-05-02T11:58:25.733Z,99475.00
2023-05-02T12:00:53.814Z,99390.53
2023-05-02T12:03:23.952Z,99370.97
2023-05-02T12:05:52.361Z,99483.94
2023-05-02T12:08:27.132Z,99454.75
2023-05-02T12:10:56.330Z,99335.44
2023-05-02T12:13:26.335Z,99463.22
2023-05-02T12:15:55.378Z,99481.78
2023-05-02T12:18:24.710Z,99307.16
2023-05-02T12:20:53.380Z,99347.59
2023-05-02T12:23:23.505Z,99248.97
2023-05-02T12:25:50.897Z,99281.84
2023-05-02T12:28:19.743Z,99470.66
2023-05-02T12:30:50.557Z,99596.31
2023-05-02T12:33:18.613Z,99590.84
2023-05-02T12:35:47.551Z,99305.28
2023-05-02T12:38:17.837Z,99377.06
2023-05-02T12:40:50.155Z,99393.41
2023-05-02T12:43:17.792Z,99376.81
2023-05-02T12:45:45.414Z,99317.88
2023-05-02T12:48:26.494Z,99383.34
2023-05-02T12:50:55.497Z,99247.28
2023-05-02T12:53:43.269Z,99374.47
2023-05-02T12:56:13.812Z,99398.19
2023-05-02T12:58:43.380Z,99392.75
2023-05-02T13:01:12.011Z,99402.19
2023-05-02T13:03:40.105Z,99403.06
2023-05-02T13:06:07.604Z,99450.47
2023-05-02T13:08:35.645Z,99396.50
2023-05-02T13:11:04.220Z,99431.88
2023-05-02T13:13:32.789Z,99367.09
2023-05-02T13:16:00.282Z,99497.44
2023-05-02T13:18:30.952Z,99413.72
2023-05-02T13:20:58.372Z,99273.13
2023-05-02T13:23:25.901Z,99357.44
2023-05-02T13:25:53.384Z,99268.00
2023-05-02T13:28:20.736Z,99231.66
2023-05-02T13:30:48.291Z,99157.16
2023-05-02T13:33:16.013Z,98977.63
2023-05-02T13:35:43.086Z,99067.75
2023-05-02T13:38:10.548Z,99170.25
2023-05-02T13:40:37.913Z,99102.56
2023-05-02T13:43:05.284Z,99152.16
2023-05-02T13:45:33.085Z,98990.03
2023-05-02T13:48:00.612Z,99238.59
2023-05-02T13:50:28.100Z,99107.59
2023-05-02T13:52:55.470Z,98983.75
2023-05-02T13:55:22.891Z,98907.75
2023-05-02T13:57:50.548Z,98995.72
2023-05-02T14:00:20.388Z,98991.50
2023-05-02T14:02:48.723Z,98741.00
2023-05-02T14:05:16.212Z,99155.44
2023-05-02T14:07:43.525Z,98969.06
2023-05-02T14:10:10.953Z,99113.72
2023-05-02T14:12:38.378Z,98888.63
2023-05-02T14:15:06.317Z,98863.72
2023-05-02T14:17:37.471Z,98791.00
2023-05-02T14:20:05.942Z,98707.63
2023-05-02T14:22:33.294Z,98796.41
2023-05-02T14:25:00.747Z,98843.50
2023-05-02T14:27:28.130Z,98612.03
2023-05-02T14:29:55.509Z,98708.50
2023-05-02T14:32:22.877Z,98942.06
2023-05-02T14:34:51.446Z,98651.78
2023-05-02T14:37:18.808Z,98562.22
2023-05-02T14:39:51.123Z,98690.94
2023-05-02T14:42:19.705Z,98767.19
2023-05-02T14:44:47.059Z,98790.69
2023-05-02T14:47:14.549Z,98908.00
2023-05-02T14:49:41.622Z,98985.94
2023-05-02T14:52:09.112Z,98812.81
2023-05-02T14:54:36.527Z,99031.38
2023-05-02T14:57:04.448Z,98940.16
2023-05-02T14:59:31.994Z,98828.72
2023-05-02T15:01:59.540Z,98872.03
2023-05-02T15:04:28.020Z,98768.31
2023-05-02T15:06:56.748Z,98963.13
2023-05-02T15:09:26.747Z,98958.63
2023-05-02T15:11:54.784Z,98812.03
2023-05-02T15:14:22.274Z,98856.72
2023-05-02T15:16:49.815Z,98905.75
2023-05-02T15:19:17.259Z,98926.63
2023-05-02T15:21:44.594Z,99022.94
2023-05-02T15:24:11.888Z,98876.69
2023-05-02T15:26:40.531Z,98818.03
2023-05-02T15:29:08.088Z,98848.25
2023-05-02T15:31:35.740Z,98801.69
2023-05-02T15:34:03.406Z,98834.16
2023-05-02T15:36:31.284Z,98904.38
2023-05-02T15:38:58.782Z,98772.50
2023-05-02T15:41:29.354Z,98791.03
2023-05-02T15:43:58.016Z,98875.19
2023-05-02T15:46:28.555Z,98902.72
2023-05-02T15:48:56.487Z,98733.50
2023-05-02T15:51:23.864Z,98588.53
2023-05-02T15:53:54.555Z,98769.72
2023-05-02T15:56:22.328Z,98748.97
2023-05-02T15:58:49.857Z,98760.00
2023-05-02T16:01:17.269Z,98677.44
2023-05-02T16:03:45.348Z,98833.47
2023-05-02T16:06:12.827Z,98800.97
2023-05-02T16:08:40.210Z,98835.72
2023-05-02T16:11:07.523Z,98765.63
2023-05-02T16:13:34.905Z,98755.09
2023-05-02T16:16:02.392Z,98902.94
2023-05-02T16:18:29.786Z,98896.88
2023-05-02T16:20:57.569Z,98933.50
2023-05-02T16:23:25.879Z,98746.75
2023-05-02T16:26:00.024Z,98823.38
2023-05-02T16:28:27.492Z,98778.66
2023-05-02T16:30:54.966Z,98799.84
2023-05-02T16:33:22.608Z,98824.22
2023-05-02T16:35:49.977Z,98762.63
2023-05-02T16:38:17.423Z,98834.44
2023-05-02T16:40:44.824Z,98812.72
2023-05-02T16:43:12.266Z,98796.19
2023-05-02T16:45:39.640Z,98861.94
2023-05-02T16:48:07.667Z,98826.94
2023-05-02T16:50:35.142Z,98755.56
2023-05-02T16:53:02.615Z,98653.72
2023-05-02T16:55:30.484Z,98685.34
2023-05-02T16:57:57.904Z,98714.84
2023-05-02T17:00:25.389Z,98680.44
2023-05-02T17:02:58.249Z,98739.59
2023-05-02T17:05:26.501Z,98653.09
2023-05-02T17:07:54.082Z,98723.84
2023-05-02T17:10:21.388Z,98729.91
2023-05-02T17:12:48.771Z,98788.16
2023-05-02T17:15:16.513Z,98818.75
2023-05-02T17:17:44.363Z,98851.63
2023-05-02T17:20:12.961Z,98810.09
2023-05-02T17:22:41.700Z,98766.94
2023-05-02T17:25:10.936Z,98823.53
2023-05-02T17:27:40.986Z,98761.56
2023-05-02T17:30:09.548Z,98781.44
2023-05-02T17:32:37.796Z,98814.00
2023-05-02T17:35:06.625Z,98784.16
2023-05-02T17:37:34.165Z,98705.00
2023-05-02T17:40:02.436Z,98751.69
2023-05-02T17:42:29.992Z,98719.25
2023-05-02T17:44:57.395Z,98724.66
2023-05-02T17:47:25.804Z,98740.16
2023-05-02T17:49:53.982Z,98774.44
2023-05-02T17:52:21.659Z,98814.59
2023-05-02T17:54:48.989Z,98821.34
2023-05-02T17:57:16.971Z,98801.72
2023-05-02T17:59:44.523Z,98785.50
2023-05-02T18:02:12.087Z,98831.88
2023-05-02T18:04:39.599Z,98861.50
2023-05-02T18:07:06.941Z,98880.78
2023-05-02T18:09:34.325Z,98863.59
2023-05-02T18:12:04.523Z,98865.84
2023-05-02T18:14:32.470Z,98921.47
2023-05-02T18:16:59.949Z,98944.28
2023-05-02T18:19:27.027Z,98948.44
2023-05-02T18:21:54.568Z,98992.13
2023-05-02T18:24:21.922Z,98974.09
2023-05-02T18:26:50.216Z,99003.41
2023-05-02T18:29:17.958Z,99025.56
2023-05-02T18:31:52.270Z,99012.81
2023-05-02T18:34:19.884Z,99055.22
2023-05-02T18:36:47.299Z,99057.84
2023-05-02T18:39:14.858Z,99084.31
2023-05-02T18:41:42.304Z,99098.19
2023-05-02T18:44:11.513Z,99120.69
2023-05-02T18:46:39.054Z,99142.16
2023-05-02T18:49:09.052Z,99162.13
2023-05-02T18:51:36.424Z,99183.19
2023-05-02T18:54:03.948Z,99215.41
2023-05-02T18:56:31.352Z,99223.94
2023-05-02T18:58:58.782Z,99267.22
2023-05-02T19:01:39.472Z,99271.84
2023-05-02T19:04:10.056Z,99299.75
2023-05-02T19:06:37.116Z,99346.03
2023-05-02T19:09:04.757Z,99365.78
2023-05-02T19:11:32.105Z,99417.06
2023-05-02T19:14:01.411Z,99442.06
2023-05-02T19:16:29.230Z,99462.09
2023-05-02T19:18:59.522Z,99498.34
2023-05-02T19:21:28.040Z,99521.50
2023-05-02T19:23:57.017Z,99562.97
2023-05-02T19:26:24.726Z,99582.63
2023-05-02T19:28:52.344Z,99613.81
2023-05-02T19:31:24.860Z,99659.81
2023-05-02T19:33:52.428Z,99670.72
